sensor_id;sensor_type;location;lat;lon;timestamp;pressure;altitude;pressure_sealevel;temperature;humidity
61506;BME280;47366;51.916;4.574;2023-04-15T00:00:35;100891.16;;;9.56;61.81
61506;BME280;47366;51.916;4.574;2023-04-15T00:03:01;100889.13;;;9.60;61.56
61506;BME280;47366;51.916;4.574;2023-04-15T00:05:28;100889.25;;;9.59;61.48
61506;BME280;47366;51.916;4.574;2023-04-15T00:07:54;100894.66;;;9.59;61.79
61506;BME280;47366;51.916;4.574;2023-04-15T00:10:19;100893.00;;;9.56;61.67
61506;BME280;47366;51.916;4.574;2023-04-15T00:12:44;100897.38;;;9.59;61.73
61506;BME280;47366;51.916;4.574;2023-04-15T00:15:10;100890.44;;;9.53;62.08
61506;BME280;47366;51.916;4.574;2023-04-15T00:17:36;100894.06;;;9.53;61.67
61506;BME280;47366;51.916;4.574;2023-04-15T00:20:03;100894.06;;;9.53;62.00
61506;BME280;47366;51.916;4.574;2023-04-15T00:22:30;100898.56;;;9.53;61.61
61506;BME280;47366;51.916;4.574;2023-04-15T00:24:56;100897.88;;;9.49;61.89
61506;BME280;47366;51.916;4.574;2023-04-15T00:27:22;100902.56;;;9.46;62.06
61506;BME280;47366;51.916;4.574;2023-04-15T00:29:47;100902.69;;;9.44;61.68
61506;BME280;47366;51.916;4.574;2023-04-15T00:32:13;100913.50;;;9.44;61.67
61506;BME280;47366;51.916;4.574;2023-04-15T00:34:38;100908.47;;;9.36;61.78
61506;BME280;47366;51.916;4.574;2023-04-15T00:37:03;100913.91;;;9.36;62.45
61506;BME280;47366;51.916;4.574;2023-04-15T00:39:29;100908.59;;;9.35;61.83
61506;BME280;47366;51.916;4.574;2023-04-15T00:41:55;100904.31;;;9.31;61.96
61506;BME280;47366;51.916;4.574;2023-04-15T00:44:21;100907.00;;;9.31;61.85
61506;BME280;47366;51.916;4.574;2023-04-15T00:46:47;100902.66;;;9.28;61.94
61506;BME280;47366;51.916;4.574;2023-04-15T00:49:15;100899.16;;;9.26;62.33
61506;BME280;47366;51.916;4.574;2023-04-15T00:51:41;100911.72;;;9.27;62.76
61506;BME280;47366;51.916;4.574;2023-04-15T00:54:07;100903.69;;;9.26;62.35
61506;BME280;47366;51.916;4.574;2023-04-15T00:56:36;100901.06;;;9.24;62.71
61506;BME280;47366;51.916;4.574;2023-04-15T00:59:03;100900.38;;;9.21;62.48
61506;BME280;47366;51.916;4.574;2023-04-15T01:01:29;100894.25;;;9.17;62.72
61506;BME280;47366;51.916;4.574;2023-04-15T01:03:56;100900.69;;;9.14;62.73
61506;BME280;47366;51.916;4.574;2023-04-15T01:06:24;100904.44;;;9.12;63.11
61506;BME280;47366;51.916;4.574;2023-04-15T01:08:51;100902.16;;;9.04;62.80
61506;BME280;47366;51.916;4.574;2023-04-15T01:11:17;100903.09;;;9.03;63.53
61506;BME280;47366;51.916;4.574;2023-04-15T01:13:43;100898.91;;;8.98;62.62
61506;BME280;47366;51.916;4.574;2023-04-15T01:16:08;100900.75;;;8.97;62.94
61506;BME280;47366;51.916;4.574;2023-04-15T01:18:36;100902.72;;;8.93;63.61
61506;BME280;47366;51.916;4.574;2023-04-15T01:21:03;100900.28;;;8.89;63.41
61506;BME280;47366;51.916;4.574;2023-04-15T01:23:29;100910.84;;;8.93;63.35
61506;BME280;47366;51.916;4.574;2023-04-15T01:25:55;100901.16;;;8.89;63.55
61506;BME280;47366;51.916;4.574;2023-04-15T01:28:21;100904.97;;;8.85;63.46
61506;BME280;47366;51.916;4.574;2023-04-15T01:30:47;100902.47;;;8.82;63.10
61506;BME280;47366;51.916;4.574;2023-04-15T01:33:12;100900.00;;;8.78;63.24
61506;BME280;47366;51.916;4.574;2023-04-15T01:35:38;100905.28;;;8.79;63.52
61506;BME280;47366;51.916;4.574;2023-04-15T01:38:07;100900.88;;;8.78;63.80
61506;BME280;47366;51.916;4.574;2023-04-15T01:40:34;100903.88;;;8.72;63.88
61506;BME280;47366;51.916;4.574;2023-04-15T01:43:00;100898.66;;;8.69;63.96
61506;BME280;47366;51.916;4.574;2023-04-15T01:45:26;100903.19;;;8.68;63.66
61506;BME280;47366;51.916;4.574;2023-04-15T01:47:51;100905.09;;;8.66;64.35
61506;BME280;47366;51.916;4.574;2023-04-15T01:50:17;100898.09;;;8.62;63.89
61506;BME280;47366;51.916;4.574;2023-04-15T01:52:43;100904.53;;;8.60;64.47
61506;BME280;47366;51.916;4.574;2023-04-15T01:55:10;100904.53;;;8.60;64.41
61506;BME280;47366;51.916;4.574;2023-04-15T01:57:35;100904.69;;;8.57;64.18
61506;BME280;47366;51.916;4.574;2023-04-15T02:00:01;100908.19;;;8.59;63.74
61506;BME280;47366;51.916;4.574;2023-04-15T02:02:27;100908.25;;;8.57;63.89
61506;BME280;47366;51.916;4.574;2023-04-15T02:04:53;100904.22;;;8.48;63.90
61506;BME280;47366;51.916;4.574;2023-04-15T02:07:18;100912.41;;;8.47;64.69
61506;BME280;47366;51.916;4.574;2023-04-15T02:09:44;100907.94;;;8.46;64.49
61506;BME280;47366;51.916;4.574;2023-04-15T02:12:10;100914.13;;;8.48;64.34
61506;BME280;47366;51.916;4.574;2023-04-15T02:14:35;100916.03;;;8.46;64.60
61506;BME280;47366;51.916;4.574;2023-04-15T02:17:01;100918.75;;;8.46;64.23
61506;BME280;47366;51.916;4.574;2023-04-15T02:19:32;100915.34;;;8.42;64.38
61506;BME280;47366;51.916;4.574;2023-04-15T02:21:57;100920.75;;;8.42;64.33
61506;BME280;47366;51.916;4.574;2023-04-15T02:24:22;100916.28;;;8.41;64.43
61506;BME280;47366;51.916;4.574;2023-04-15T02:26:48;100921.97;;;8.35;64.27
61506;BME280;47366;51.916;4.574;2023-04-15T02:29:13;100923.00;;;8.33;64.09
61506;BME280;47366;51.916;4.574;2023-04-15T02:31:38;100914.97;;;8.31;65.09
61506;BME280;47366;51.916;4.574;2023-04-15T02:34:06;100925.06;;;8.27;64.94
61506;BME280;47366;51.916;4.574;2023-04-15T02:36:32;100928.88;;;8.23;64.76
61506;BME280;47366;51.916;4.574;2023-04-15T02:38:58;100937.13;;;8.20;65.31
61506;BME280;47366;51.916;4.574;2023-04-15T02:41:24;100936.97;;;8.23;65.11
61506;BME280;47366;51.916;4.574;2023-04-15T02:43:51;100937.84;;;8.24;65.07
61506;BME280;47366;51.916;4.574;2023-04-15T02:46:17;100948.72;;;8.22;64.74
61506;BME280;47366;51.916;4.574;2023-04-15T02:48:42;100953.16;;;8.23;65.13
61506;BME280;47366;51.916;4.574;2023-04-15T02:51:19;100955.91;;;8.22;65.44
61506;BME280;47366;51.916;4.574;2023-04-15T02:53:48;100951.50;;;8.21;65.45
61506;BME280;47366;51.916;4.574;2023-04-15T02:56:14;100962.13;;;8.24;64.99
61506;BME280;47366;51.916;4.574;2023-04-15T02:58:42;100967.75;;;8.19;64.84
61506;BME280;47366;51.916;4.574;2023-04-15T03:01:09;100964.97;;;8.21;64.85
61506;BME280;47366;51.916;4.574;2023-04-15T03:03:34;100971.47;;;8.17;65.37
61506;BME280;47366;51.916;4.574;2023-04-15T03:06:00;100970.66;;;8.15;65.14
61506;BME280;47366;51.916;4.574;2023-04-15T03:08:25;100969.22;;;8.07;65.30
61506;BME280;47366;51.916;4.574;2023-04-15T03:10:51;100971.06;;;8.07;65.63
61506;BME280;47366;51.916;4.574;2023-04-15T03:13:17;100969.22;;;8.07;66.15
61506;BME280;47366;51.916;4.574;2023-04-15T03:15:45;100969.22;;;8.07;66.37
61506;BME280;47366;51.916;4.574;2023-04-15T03:18:11;100965.72;;;8.05;66.39
61506;BME280;47366;51.916;4.574;2023-04-15T03:20:36;100968.41;;;8.05;66.11
61506;BME280;47366;51.916;4.574;2023-04-15T03:23:01;100973.31;;;7.97;65.62
61506;BME280;47366;51.916;4.574;2023-04-15T03:25:27;100978.72;;;7.97;65.38
61506;BME280;47366;51.916;4.574;2023-04-15T03:27:52;100982.22;;;7.99;65.87
61506;BME280;47366;51.916;4.574;2023-04-15T03:30:17;100986.81;;;7.97;65.90
61506;BME280;47366;51.916;4.574;2023-04-15T03:32:43;100990.38;;;7.98;65.52
61506;BME280;47366;51.916;4.574;2023-04-15T03:35:08;100983.31;;;7.95;66.70
61506;BME280;47366;51.916;4.574;2023-04-15T03:37:34;100994.09;;;7.95;66.05
61506;BME280;47366;51.916;4.574;2023-04-15T03:39:59;100998.78;;;7.92;65.43
61506;BME280;47366;51.916;4.574;2023-04-15T03:42:25;100997.88;;;7.91;66.13
61506;BME280;47366;51.916;4.574;2023-04-15T03:44:51;101009.41;;;7.95;66.35
61506;BME280;47366;51.916;4.574;2023-04-15T03:47:16;101006.72;;;7.95;65.97
61506;BME280;47366;51.916;4.574;2023-04-15T03:49:41;101001.53;;;7.90;66.09
61506;BME280;47366;51.916;4.574;2023-04-15T03:52:07;101013.19;;;7.91;67.16
61506;BME280;47366;51.916;4.574;2023-04-15T03:54:32;101009.69;;;7.88;66.69
61506;BME280;47366;51.916;4.574;2023-04-15T03:56:57;101019.47;;;7.91;66.31
61506;BME280;47366;51.916;4.574;2023-04-15T03:59:23;101022.31;;;7.88;66.01
61506;BME280;47366;51.916;4.574;2023-04-15T04:01:48;101019.63;;;7.88;66.54
61506;BME280;47366;51.916;4.574;2023-04-15T04:04:13;101017.00;;;7.86;66.79
61506;BME280;47366;51.916;4.574;2023-04-15T04:06:39;101024.84;;;7.91;66.64
61506;BME280;47366;51.916;4.574;2023-04-15T04:09:04;101026.69;;;7.91;66.71
61506;BME280;47366;51.916;4.574;2023-04-15T04:11:29;101027.72;;;7.88;66.87
61506;BME280;47366;51.916;4.574;2023-04-15T04:13:55;101021.38;;;7.89;66.13
61506;BME280;47366;51.916;4.574;2023-04-15T04:16:21;101027.66;;;7.90;66.83
61506;BME280;47366;51.916;4.574;2023-04-15T04:18:46;101031.22;;;7.90;66.31
61506;BME280;47366;51.916;4.574;2023-04-15T04:21:11;101033.09;;;7.88;66.39
61506;BME280;47366;51.916;4.574;2023-04-15T04:23:37;101040.47;;;7.84;66.85
61506;BME280;47366;51.916;4.574;2023-04-15T04:26:02;101045.88;;;7.84;66.61
61506;BME280;47366;51.916;4.574;2023-04-15T04:28:27;101047.66;;;7.84;67.42
61506;BME280;47366;51.916;4.574;2023-04-15T04:30:53;101049.59;;;7.82;66.37
61506;BME280;47366;51.916;4.574;2023-04-15T04:33:18;101054.03;;;7.83;67.60
61506;BME280;47366;51.916;4.574;2023-04-15T04:35:43;101051.59;;;7.77;67.48
61506;BME280;47366;51.916;4.574;2023-04-15T04:38:09;101062.38;;;7.77;67.42
61506;BME280;47366;51.916;4.574;2023-04-15T04:40:34;101067.72;;;7.78;67.61
61506;BME280;47366;51.916;4.574;2023-04-15T04:43:00;101069.69;;;7.75;66.77
61506;BME280;47366;51.916;4.574;2023-04-15T04:45:25;101079.06;;;7.66;67.27
61506;BME280;47366;51.916;4.574;2023-04-15T04:47:51;101081.91;;;7.63;67.77
61506;BME280;47366;51.916;4.574;2023-04-15T04:50:16;101079.44;;;7.58;68.23
61506;BME280;47366;51.916;4.574;2023-04-15T04:52:41;101085.75;;;7.57;68.91
61506;BME280;47366;51.916;4.574;2023-04-15T04:55:07;101097.50;;;7.56;68.02
61506;BME280;47366;51.916;4.574;2023-04-15T04:57:33;101090.31;;;7.55;68.55
61506;BME280;47366;51.916;4.574;2023-04-15T05:00:00;101101.91;;;7.57;67.89
61506;BME280;47366;51.916;4.574;2023-04-15T05:02:26;101106.44;;;7.57;67.59
61506;BME280;47366;51.916;4.574;2023-04-15T05:04:51;101114.53;;;7.57;68.69
61506;BME280;47366;51.916;4.574;2023-04-15T05:07:18;101113.72;;;7.55;68.24
61506;BME280;47366;51.916;4.574;2023-04-15T05:09:45;101119.13;;;7.55;68.44
61506;BME280;47366;51.916;4.574;2023-04-15T05:12:10;101125.38;;;7.55;68.56
61506;BME280;47366;51.916;4.574;2023-04-15T05:14:42;101131.66;;;7.56;68.60
61506;BME280;47366;51.916;4.574;2023-04-15T05:17:07;101133.47;;;7.55;68.43
61506;BME280;47366;51.916;4.574;2023-04-15T05:19:33;101130.75;;;7.55;69.35
61506;BME280;47366;51.916;4.574;2023-04-15T05:21:59;101149.53;;;7.58;68.94
61506;BME280;47366;51.916;4.574;2023-04-15T05:24:24;101149.63;;;7.55;68.65
61506;BME280;47366;51.916;4.574;2023-04-15T05:26:50;101148.03;;;7.51;68.28
61506;BME280;47366;51.916;4.574;2023-04-15T05:29:15;101152.53;;;7.51;69.19
61506;BME280;47366;51.916;4.574;2023-04-15T05:31:41;101158.06;;;7.48;68.30
61506;BME280;47366;51.916;4.574;2023-04-15T05:34:07;101175.84;;;7.52;69.37
61506;BME280;47366;51.916;4.574;2023-04-15T05:36:32;101174.03;;;7.52;69.12
61506;BME280;47366;51.916;4.574;2023-04-15T05:38:57;101174.03;;;7.52;68.83
61506;BME280;47366;51.916;4.574;2023-04-15T05:41:23;101180.25;;;7.54;68.84
61506;BME280;47366;51.916;4.574;2023-04-15T05:43:48;101181.94;;;7.57;68.54
61506;BME280;47366;51.916;4.574;2023-04-15T05:46:13;101199.63;;;7.62;69.42
61506;BME280;47366;51.916;4.574;2023-04-15T05:48:39;101195.19;;;7.61;67.90
61506;BME280;47366;51.916;4.574;2023-04-15T05:51:04;101197.69;;;7.66;68.86
61506;BME280;47366;51.916;4.574;2023-04-15T05:53:29;101206.66;;;7.66;69.37
61506;BME280;47366;51.916;4.574;2023-04-15T05:55:56;101213.69;;;7.71;69.20
61506;BME280;47366;51.916;4.574;2023-04-15T05:58:21;101215.31;;;7.75;69.26
61506;BME280;47366;51.916;4.574;2023-04-15T06:00:46;101229.47;;;7.80;68.92
61506;BME280;47366;51.916;4.574;2023-04-15T06:03:12;101227.63;;;7.80;68.31
61506;BME280;47366;51.916;4.574;2023-04-15T06:05:37;101235.72;;;7.80;67.92
61506;BME280;47366;51.916;4.574;2023-04-15T06:08:03;101232.00;;;7.83;68.14
61506;BME280;47366;51.916;4.574;2023-04-15T06:10:28;101242.44;;;7.91;67.89
61506;BME280;47366;51.916;4.574;2023-04-15T06:12:54;101249.41;;;7.96;67.78
61506;BME280;47366;51.916;4.574;2023-04-15T06:15:20;101256.16;;;8.06;67.60
61506;BME280;47366;51.916;4.574;2023-04-15T06:17:45;101258.50;;;8.14;67.70
61506;BME280;47366;51.916;4.574;2023-04-15T06:20:11;101259.91;;;8.23;67.04
61506;BME280;47366;51.916;4.574;2023-04-15T06:22:36;101269.34;;;8.33;67.73
61506;BME280;47366;51.916;4.574;2023-04-15T06:25:03;101273.53;;;8.40;67.24
61506;BME280;47366;51.916;4.574;2023-04-15T06:27:29;101282.25;;;8.47;67.20
61506;BME280;47366;51.916;4.574;2023-04-15T06:29:54;101279.84;;;8.60;66.60
61506;BME280;47366;51.916;4.574;2023-04-15T06:32:20;101281.41;;;8.65;67.04
61506;BME280;47366;51.916;4.574;2023-04-15T06:34:45;101296.16;;;8.77;66.86
61506;BME280;47366;51.916;4.574;2023-04-15T06:37:10;101298.41;;;8.86;66.82
61506;BME280;47366;51.916;4.574;2023-04-15T06:39:40;101293.69;;;8.91;66.43
61506;BME280;47366;51.916;4.574;2023-04-15T06:42:05;101304.94;;;9.01;66.76
61506;BME280;47366;51.916;4.574;2023-04-15T06:44:30;101308.94;;;9.11;66.14
61506;BME280;47366;51.916;4.574;2023-04-15T06:46:56;101313.97;;;9.19;66.24
61506;BME280;47366;51.916;4.574;2023-04-15T06:49:21;101319.34;;;9.38;66.26
61506;BME280;47366;51.916;4.574;2023-04-15T06:51:47;101321.44;;;9.50;66.06
61506;BME280;47366;51.916;4.574;2023-04-15T06:54:12;101331.41;;;9.67;66.04
61506;BME280;47366;51.916;4.574;2023-04-15T06:56:37;101326.97;;;9.84;65.26
61506;BME280;47366;51.916;4.574;2023-04-15T06:59:03;101325.50;;;9.95;65.05
61506;BME280;47366;51.916;4.574;2023-04-15T07:01:28;101324.44;;;9.98;65.27
61506;BME280;47366;51.916;4.574;2023-04-15T07:03:53;101330.03;;;10.12;65.17
61506;BME280;47366;51.916;4.574;2023-04-15T07:06:19;101326.53;;;10.28;64.44
61506;BME280;47366;51.916;4.574;2023-04-15T07:08:44;101331.63;;;10.51;63.66
61506;BME280;47366;51.916;4.574;2023-04-15T07:11:09;101335.41;;;10.65;63.92
61506;BME280;47366;51.916;4.574;2023-04-15T07:13:35;101338.06;;;10.82;63.52
61506;BME280;47366;51.916;4.574;2023-04-15T07:16:00;101338.47;;;10.92;63.18
61506;BME280;47366;51.916;4.574;2023-04-15T07:18:26;101338.47;;;11.08;63.01
61506;BME280;47366;51.916;4.574;2023-04-15T07:20:51;101339.56;;;11.21;63.07
61506;BME280;47366;51.916;4.574;2023-04-15T07:23:16;101339.66;;;11.35;63.00
61506;BME280;47366;51.916;4.574;2023-04-15T07:25:42;101344.56;;;11.44;62.11
61506;BME280;47366;51.916;4.574;2023-04-15T07:28:07;101351.25;;;11.53;62.59
61506;BME280;47366;51.916;4.574;2023-04-15T07:30:33;101355.91;;;11.67;62.01
61506;BME280;47366;51.916;4.574;2023-04-15T07:32:59;101357.03;;;11.79;62.07
61506;BME280;47366;51.916;4.574;2023-04-15T07:35:24;101365.00;;;11.98;62.03
61506;BME280;47366;51.916;4.574;2023-04-15T07:37:50;101365.41;;;12.06;61.44
61506;BME280;47366;51.916;4.574;2023-04-15T07:40:16;101366.25;;;12.22;61.23
61506;BME280;47366;51.916;4.574;2023-04-15T07:42:43;101381.31;;;12.28;61.25
61506;BME280;47366;51.916;4.574;2023-04-15T07:45:09;101383.63;;;12.34;60.97
61506;BME280;47366;51.916;4.574;2023-04-15T07:47:34;101378.34;;;12.47;60.59
61506;BME280;47366;51.916;4.574;2023-04-15T07:50:00;101382.47;;;12.68;60.42
61506;BME280;47366;51.916;4.574;2023-04-15T07:52:26;101382.88;;;12.91;60.03
61506;BME280;47366;51.916;4.574;2023-04-15T07:54:52;101391.53;;;12.98;59.76
61506;BME280;47366;51.916;4.574;2023-04-15T07:57:17;101396.47;;;13.05;59.47
61506;BME280;47366;51.916;4.574;2023-04-15T07:59:42;101408.03;;;13.09;59.00
61506;BME280;47366;51.916;4.574;2023-04-15T08:02:09;101410.66;;;13.10;59.14
61506;BME280;47366;51.916;4.574;2023-04-15T08:04:35;101410.34;;;13.15;58.90
61506;BME280;47366;51.916;4.574;2023-04-15T08:07:00;101414.16;;;13.27;59.65
61506;BME280;47366;51.916;4.574;2023-04-15T08:09:25;101424.56;;;13.34;59.03
61506;BME280;47366;51.916;4.574;2023-04-15T08:11:52;101424.28;;;13.39;58.94
61506;BME280;47366;51.916;4.574;2023-04-15T08:14:17;101430.69;;;13.52;58.90
61506;BME280;47366;51.916;4.574;2023-04-15T08:16:43;101429.63;;;13.55;57.87
61506;BME280;47366;51.916;4.574;2023-04-15T08:19:08;101439.69;;;13.67;58.35
61506;BME280;47366;51.916;4.574;2023-04-15T08:21:33;101439.88;;;13.78;58.41
61506;BME280;47366;51.916;4.574;2023-04-15T08:23:59;101448.50;;;13.99;57.87
61506;BME280;47366;51.916;4.574;2023-04-15T08:26:24;101457.28;;;14.17;57.40
61506;BME280;47366;51.916;4.574;2023-04-15T08:28:50;101453.47;;;14.20;56.27
61506;BME280;47366;51.916;4.574;2023-04-15T08:31:17;101458.13;;;14.18;56.88
61506;BME280;47366;51.916;4.574;2023-04-15T08:33:42;101456.03;;;14.36;56.72
61506;BME280;47366;51.916;4.574;2023-04-15T08:36:08;101463.47;;;14.47;56.44
61506;BME280;47366;51.916;4.574;2023-04-15T08:38:33;101467.38;;;14.57;56.53
61506;BME280;47366;51.916;4.574;2023-04-15T08:41:03;101480.41;;;14.79;56.11
61506;BME280;47366;51.916;4.574;2023-04-15T08:43:38;101478.66;;;14.91;56.17
61506;BME280;47366;51.916;4.574;2023-04-15T08:46:06;101486.09;;;15.01;55.46
61506;BME280;47366;51.916;4.574;2023-04-15T08:48:37;101490.25;;;15.07;55.09
61506;BME280;47366;51.916;4.574;2023-04-15T08:51:03;101498.75;;;15.15;55.17
61506;BME280;47366;51.916;4.574;2023-04-15T08:53:29;101493.19;;;15.04;55.08
61506;BME280;47366;51.916;4.574;2023-04-15T08:55:56;101498.38;;;14.69;55.56
61506;BME280;47366;51.916;4.574;2023-04-15T08:58:22;101502.06;;;14.68;55.13
61506;BME280;47366;51.916;4.574;2023-04-15T09:00:48;101506.66;;;14.80;54.99
61506;BME280;47366;51.916;4.574;2023-04-15T09:03:15;101498.75;;;15.02;54.53
61506;BME280;47366;51.916;4.574;2023-04-15T09:05:41;101495.94;;;15.29;54.24
61506;BME280;47366;51.916;4.574;2023-04-15T09:08:07;101506.84;;;15.29;53.64
61506;BME280;47366;51.916;4.574;2023-04-15T09:10:33;101501.19;;;15.45;53.47
61506;BME280;47366;51.916;4.574;2023-04-15T09:13:00;101512.75;;;15.49;52.98
61506;BME280;47366;51.916;4.574;2023-04-15T09:15:26;101515.06;;;15.81;52.95
61506;BME280;47366;51.916;4.574;2023-04-15T09:17:53;101515.69;;;15.84;52.26
61506;BME280;47366;51.916;4.574;2023-04-15T09:20:19;101515.34;;;15.89;51.40
61506;BME280;47366;51.916;4.574;2023-04-15T09:22:46;101530.59;;;15.80;51.09
61506;BME280;47366;51.916;4.574;2023-04-15T09:27:48;101536.59;;;16.22;51.39
61506;BME280;47366;51.916;4.574;2023-04-15T09:30:14;101542.56;;;16.40;49.98
61506;BME280;47366;51.916;4.574;2023-04-15T09:32:58;101546.84;;;16.55;50.01
61506;BME280;47366;51.916;4.574;2023-04-15T09:35:25;101548.22;;;16.37;48.49
61506;BME280;47366;51.916;4.574;2023-04-15T09:37:52;101550.00;;;16.38;50.04
61506;BME280;47366;51.916;4.574;2023-04-15T09:43:00;101562.09;;;16.47;50.10
61506;BME280;47366;51.916;4.574;2023-04-15T09:45:26;101573.84;;;16.60;48.70
61506;BME280;47366;51.916;4.574;2023-04-15T09:47:52;101563.00;;;16.71;48.59
61506;BME280;47366;51.916;4.574;2023-04-15T09:50:18;101557.38;;;16.73;47.91
61506;BME280;47366;51.916;4.574;2023-04-15T09:52:44;101557.97;;;16.89;46.32
61506;BME280;47366;51.916;4.574;2023-04-15T09:55:11;101574.06;;;16.94;47.45
61506;BME280;47366;51.916;4.574;2023-04-15T09:57:38;101567.97;;;16.90;47.29
61506;BME280;47366;51.916;4.574;2023-04-15T10:00:07;101579.25;;;16.86;47.65
61506;BME280;47366;51.916;4.574;2023-04-15T10:02:34;101582.16;;;16.95;46.98
61506;BME280;47366;51.916;4.574;2023-04-15T10:05:01;101580.44;;;17.06;46.95
61506;BME280;47366;51.916;4.574;2023-04-15T10:07:27;101585.31;;;17.13;46.72
61506;BME280;47366;51.916;4.574;2023-04-15T10:09:53;101584.50;;;17.24;46.43
61506;BME280;47366;51.916;4.574;2023-04-15T10:12:19;101586.31;;;17.48;45.97
61506;BME280;47366;51.916;4.574;2023-04-15T10:14:52;101578.59;;;17.53;46.08
61506;BME280;47366;51.916;4.574;2023-04-15T10:17:21;101576.13;;;17.72;45.44
61506;BME280;47366;51.916;4.574;2023-04-15T10:19:47;101586.63;;;17.78;45.36
61506;BME280;47366;51.916;4.574;2023-04-15T10:22:13;101582.78;;;17.81;44.61
61506;BME280;47366;51.916;4.574;2023-04-15T10:24:39;101595.81;;;17.77;44.21
61506;BME280;47366;51.916;4.574;2023-04-15T10:27:05;101591.31;;;17.65;44.59
61506;BME280;47366;51.916;4.574;2023-04-15T10:29:31;101600.41;;;17.66;43.66
61506;BME280;47366;51.916;4.574;2023-04-15T10:31:58;101596.00;;;17.52;44.35
61506;BME280;47366;51.916;4.574;2023-04-15T10:34:25;101605.56;;;17.35;44.47
61506;BME280;47366;51.916;4.574;2023-04-15T10:36:54;101602.09;;;17.44;45.22
61506;BME280;47366;51.916;4.574;2023-04-15T10:42:06;101615.25;;;17.74;44.50
61506;BME280;47366;51.916;4.574;2023-04-15T10:44:31;101608.41;;;17.80;43.96
61506;BME280;47366;51.916;4.574;2023-04-15T10:46:57;101620.03;;;17.83;44.52
61506;BME280;47366;51.916;4.574;2023-04-15T10:49:26;101606.59;;;18.03;44.46
61506;BME280;47366;51.916;4.574;2023-04-15T10:51:56;101617.28;;;18.06;44.21
61506;BME280;47366;51.916;4.574;2023-04-15T10:57:06;101631.03;;;17.95;43.41
61506;BME280;47366;51.916;4.574;2023-04-15T10:59:36;101635.00;;;17.91;44.03
61506;BME280;47366;51.916;4.574;2023-04-15T11:02:02;101640.34;;;17.92;44.15
61506;BME280;47366;51.916;4.574;2023-04-15T11:04:56;101636.34;;;17.96;43.01
61506;BME280;47366;51.916;4.574;2023-04-15T11:07:51;101636.72;;;17.80;43.64
61506;BME280;47366;51.916;4.574;2023-04-15T11:12:43;101627.94;;;17.75;43.97
61506;BME280;47366;51.916;4.574;2023-04-15T11:15:33;101633.75;;;17.95;45.00
61506;BME280;47366;51.916;4.574;2023-04-15T11:20:34;101639.63;;;18.24;44.19
61506;BME280;47366;51.916;4.574;2023-04-15T11:22:59;101645.34;;;18.43;44.52
61506;BME280;47366;51.916;4.574;2023-04-15T11:25:30;101654.94;;;18.49;43.37
61506;BME280;47366;51.916;4.574;2023-04-15T11:27:58;101653.56;;;18.55;43.87
61506;BME280;47366;51.916;4.574;2023-04-15T11:30:26;101653.56;;;18.43;43.36
61506;BME280;47366;51.916;4.574;2023-04-15T11:32:56;101654.19;;;18.47;44.26
61506;BME280;47366;51.916;4.574;2023-04-15T11:35:22;101657.28;;;18.54;44.24
61506;BME280;47366;51.916;4.574;2023-04-15T11:37:48;101664.13;;;18.71;44.49
61506;BME280;47366;51.916;4.574;2023-04-15T11:40:15;101665.03;;;18.71;44.39
61506;BME280;47366;51.916;4.574;2023-04-15T11:42:43;101655.53;;;18.75;44.46
61506;BME280;47366;51.916;4.574;2023-04-15T11:45:11;101656.28;;;18.66;44.36
61506;BME280;47366;51.916;4.574;2023-04-15T11:47:38;101675.88;;;18.28;45.76
61506;BME280;47366;51.916;4.574;2023-04-15T11:50:19;101677.84;;;17.92;44.91
61506;BME280;47366;51.916;4.574;2023-04-15T11:52:56;101672.00;;;17.96;43.27
61506;BME280;47366;51.916;4.574;2023-04-15T11:55:22;101680.22;;;17.96;45.25
61506;BME280;47366;51.916;4.574;2023-04-15T11:58:15;101673.63;;;17.88;44.36
61506;BME280;47366;51.916;4.574;2023-04-15T12:00:49;101684.25;;;17.79;44.79
61506;BME280;47366;51.916;4.574;2023-04-15T12:13:54;101691.69;;;18.01;43.95
61506;BME280;47366;51.916;4.574;2023-04-15T12:16:20;101694.28;;;17.92;44.38
61506;BME280;47366;51.916;4.574;2023-04-15T12:18:52;101707.78;;;17.95;44.31
61506;BME280;47366;51.916;4.574;2023-04-15T12:21:23;101699.31;;;18.09;44.05
61506;BME280;47366;51.916;4.574;2023-04-15T12:23:56;101710.81;;;17.79;44.10
61506;BME280;47366;51.916;4.574;2023-04-15T12:26:31;101716.00;;;18.06;44.43
61506;BME280;47366;51.916;4.574;2023-04-15T12:29:01;101716.16;;;18.27;43.55
61506;BME280;47366;51.916;4.574;2023-04-15T12:31:26;101716.28;;;18.37;43.82
61506;BME280;47366;51.916;4.574;2023-04-15T12:33:56;101732.88;;;18.24;41.10
61506;BME280;47366;51.916;4.574;2023-04-15T12:36:22;101728.72;;;18.18;42.40
61506;BME280;47366;51.916;4.574;2023-04-15T12:38:48;101726.63;;;18.22;42.56
61506;BME280;47366;51.916;4.574;2023-04-15T12:41:13;101747.47;;;18.36;40.66
61506;BME280;47366;51.916;4.574;2023-04-15T12:43:39;101741.31;;;18.21;42.08
61506;BME280;47366;51.916;4.574;2023-04-15T12:46:04;101737.09;;;18.17;41.56
61506;BME280;47366;51.916;4.574;2023-04-15T12:48:31;101739.72;;;18.30;40.26
61506;BME280;47366;51.916;4.574;2023-04-15T12:50:57;101739.97;;;18.27;42.19
61506;BME280;47366;51.916;4.574;2023-04-15T12:53:22;101747.47;;;18.36;40.66
61506;BME280;47366;51.916;4.574;2023-04-15T12:55:47;101744.19;;;18.08;41.21
61506;BME280;47366;51.916;4.574;2023-04-15T12:58:13;101751.28;;;18.11;41.48
61506;BME280;47366;51.916;4.574;2023-04-15T13:00:38;101750.53;;;17.73;41.54
61506;BME280;47366;51.916;4.574;2023-04-15T13:03:03;101755.97;;;17.62;42.86
61506;BME280;47366;51.916;4.574;2023-04-15T13:05:30;101759.31;;;17.66;42.69
61506;BME280;47366;51.916;4.574;2023-04-15T13:07:56;101770.88;;;17.58;42.70
61506;BME280;47366;51.916;4.574;2023-04-15T13:10:21;101783.94;;;17.78;42.37
61506;BME280;47366;51.916;4.574;2023-04-15T13:12:51;101781.19;;;17.78;42.36
61506;BME280;47366;51.916;4.574;2023-04-15T13:15:18;101764.97;;;17.75;42.32
61506;BME280;47366;51.916;4.574;2023-04-15T13:17:45;101768.38;;;17.55;42.70